sensor_id;sensor_type;location;lat;lon;timestamp;pressure;altitude;pressure_sealevel;temperature;humidity
76866;BME280;66647;52.124;5.416;2023-11-19T00:00:28;100894.22;;;11.82;100.00
76866;BME280;66647;52.124;5.416;2023-11-19T00:02:54;100880.81;;;11.81;100.00
76866;BME280;66647;52.124;5.416;2023-11-19T00:05:21;100878.88;;;11.81;100.00
76866;BME280;66647;52.124;5.416;2023-11-19T00:07:48;100878.06;;;11.81;100.00
76866;BME280;66647;52.124;5.416;2023-11-19T00:10:15;100882.44;;;11.82;100.00
76866;BME280;66647;52.124;5.416;2023-11-19T00:12:47;100871.31;;;11.78;100.00
76866;BME280;66647;52.124;5.416;2023-11-19T00:15:15;100872.44;;;11.77;100.00
76866;BME280;66647;52.124;5.416;2023-11-19T00:17:44;100873.53;;;11.76;100.00
76866;BME280;66647;52.124;5.416;2023-11-19T00:20:14;100870.50;;;11.77;100.00
76866;BME280;66647;52.124;5.416;2023-11-19T00:22:42;100877.59;;;11.78;100.00
76866;BME280;66647;52.124;5.416;2023-11-19T00:25:12;100884.53;;;11.76;100.00
76866;BME280;66647;52.124;5.416;2023-11-19T00:27:38;100874.69;;;11.75;100.00
76866;BME280;66647;52.124;5.416;2023-11-19T00:30:06;100863.22;;;11.73;100.00
76866;BME280;66647;52.124;5.416;2023-11-19T00:32:33;100862.56;;;11.76;100.00
76866;BME280;66647;52.124;5.416;2023-11-19T00:35:00;100854.31;;;11.76;100.00
76866;BME280;66647;52.124;5.416;2023-11-19T00:37:26;100857.41;;;11.74;100.00
76866;BME280;66647;52.124;5.416;2023-11-19T00:39:53;100852.22;;;11.73;100.00
76866;BME280;66647;52.124;5.416;2023-11-19T00:42:20;100860.66;;;11.76;100.00
76866;BME280;66647;52.124;5.416;2023-11-19T00:44:47;100862.56;;;11.76;100.00
76866;BME280;66647;52.124;5.416;2023-11-19T00:47:17;100855.63;;;11.78;100.00
76866;BME280;66647;52.124;5.416;2023-11-19T00:49:48;100848.19;;;11.79;100.00
76866;BME280;66647;52.124;5.416;2023-11-19T00:52:18;100842.22;;;11.77;100.00
76866;BME280;66647;52.124;5.416;2023-11-19T00:54:45;100850.94;;;11.79;100.00
76866;BME280;66647;52.124;5.416;2023-11-19T00:57:11;100836.38;;;11.78;100.00
76866;BME280;66647;52.124;5.416;2023-11-19T00:59:41;100844.16;;;11.76;100.00
76866;BME280;66647;52.124;5.416;2023-11-19T01:02:08;100843.03;;;11.77;100.00
76866;BME280;66647;52.124;5.416;2023-11-19T01:04:35;100848.53;;;11.77;100.00
76866;BME280;66647;52.124;5.416;2023-11-19T01:07:03;100842.22;;;11.77;100.00
76866;BME280;66647;52.124;5.416;2023-11-19T01:09:32;100847.72;;;11.77;100.00
76866;BME280;66647;52.124;5.416;2023-11-19T01:12:02;100843.81;;;11.78;100.00
76866;BME280;66647;52.124;5.416;2023-11-19T01:14:29;100854.00;;;11.77;100.00
76866;BME280;66647;52.124;5.416;2023-11-19T01:16:56;100852.53;;;11.80;100.00
76866;BME280;66647;52.124;5.416;2023-11-19T01:19:23;100843.97;;;11.82;100.00
76866;BME280;66647;52.124;5.416;2023-11-19T01:21:50;100842.03;;;11.82;100.00
76866;BME280;66647;52.124;5.416;2023-11-19T01:24:17;100829.91;;;11.83;100.00
76866;BME280;66647;52.124;5.416;2023-11-19T01:26:45;100821.19;;;11.81;100.00
76866;BME280;66647;52.124;5.416;2023-11-19T01:29:16;100826.69;;;11.81;100.00
76866;BME280;66647;52.124;5.416;2023-11-19T01:31:43;100822.31;;;11.80;100.00
76866;BME280;66647;52.124;5.416;2023-11-19T01:34:12;100814.09;;;11.80;100.00
76866;BME280;66647;52.124;5.416;2023-11-19T01:36:41;100822.00;;;11.82;100.00
76866;BME280;66647;52.124;5.416;2023-11-19T01:39:11;100820.38;;;11.81;100.00
76866;BME280;66647;52.124;5.416;2023-11-19T01:41:38;100834.59;;;11.83;100.00
76866;BME280;66647;52.124;5.416;2023-11-19T01:44:06;100820.53;;;11.84;100.00
76866;BME280;66647;52.124;5.416;2023-11-19T01:46:34;100826.00;;;11.84;100.00
76866;BME280;66647;52.124;5.416;2023-11-19T01:49:02;100829.91;;;11.83;100.00
76866;BME280;66647;52.124;5.416;2023-11-19T01:51:29;100823.94;;;11.81;100.00
76866;BME280;66647;52.124;5.416;2023-11-19T01:53:57;100823.78;;;11.77;100.00
76866;BME280;66647;52.124;5.416;2023-11-19T01:56:25;100828.47;;;11.77;100.00
76866;BME280;66647;52.124;5.416;2023-11-19T01:58:54;100817.97;;;11.79;100.00
76866;BME280;66647;52.124;5.416;2023-11-19T02:01:21;100836.72;;;11.77;100.00
76866;BME280;66647;52.124;5.416;2023-11-19T02:03:48;100829.28;;;11.77;100.00
76866;BME280;66647;52.124;5.416;2023-11-19T02:06:15;100824.59;;;11.78;100.00
76866;BME280;66647;52.124;5.416;2023-11-19T02:08:42;100829.94;;;11.74;100.00
76866;BME280;66647;52.124;5.416;2023-11-19T02:11:10;100815.25;;;11.70;100.00
76866;BME280;66647;52.124;5.416;2023-11-19T02:13:37;100810.44;;;11.67;100.00
76866;BME280;66647;52.124;5.416;2023-11-19T02:16:05;100810.97;;;11.61;100.00
76866;BME280;66647;52.124;5.416;2023-11-19T02:18:33;100817.47;;;11.56;100.00
76866;BME280;66647;52.124;5.416;2023-11-19T02:21:00;100816.97;;;11.54;100.00
76866;BME280;66647;52.124;5.416;2023-11-19T02:23:27;100829.44;;;11.52;100.00
76866;BME280;66647;52.124;5.416;2023-11-19T02:28:26;100839.13;;;11.49;100.00
76866;BME280;66647;52.124;5.416;2023-11-19T02:30:52;100835.13;;;11.47;100.00
76866;BME280;66647;52.124;5.416;2023-11-19T02:33:19;100841.28;;;11.43;100.00
76866;BME280;66647;52.124;5.416;2023-11-19T02:35:47;100847.41;;;11.40;100.00
76866;BME280;66647;52.124;5.416;2023-11-19T02:38:13;100842.59;;;11.37;100.00
76866;BME280;66647;52.124;5.416;2023-11-19T02:40:40;100835.69;;;11.31;100.00
76866;BME280;66647;52.124;5.416;2023-11-19T02:43:07;100826.19;;;11.29;100.00
76866;BME280;66647;52.124;5.416;2023-11-19T02:45:35;100826.84;;;11.26;100.00
76866;BME280;66647;52.124;5.416;2023-11-19T02:48:02;100829.91;;;11.24;100.00
76866;BME280;66647;52.124;5.416;2023-11-19T02:50:29;100820.41;;;11.22;100.00
76866;BME280;66647;52.124;5.416;2023-11-19T02:52:56;100812.81;;;11.19;100.00
76866;BME280;66647;52.124;5.416;2023-11-19T02:55:25;100819.13;;;11.19;100.00
76866;BME280;66647;52.124;5.416;2023-11-19T02:57:54;100818.66;;;11.17;100.00
76866;BME280;66647;52.124;5.416;2023-11-19T03:00:23;100815.41;;;11.15;100.00
76866;BME280;66647;52.124;5.416;2023-11-19T03:03:01;100823.97;;;11.14;100.00
76866;BME280;66647;52.124;5.416;2023-11-19T03:05:47;100825.28;;;11.07;100.00
76866;BME280;66647;52.124;5.416;2023-11-19T03:08:16;100825.50;;;11.02;100.00
76866;BME280;66647;52.124;5.416;2023-11-19T03:10:45;100815.50;;;10.98;100.00
76866;BME280;66647;52.124;5.416;2023-11-19T03:13:13;100821.97;;;10.93;100.00
76866;BME280;66647;52.124;5.416;2023-11-19T03:15:40;100829.72;;;10.91;100.00
76866;BME280;66647;52.124;5.416;2023-11-19T03:18:08;100827.97;;;10.87;100.00
76866;BME280;66647;52.124;5.416;2023-11-19T03:20:34;100824.75;;;10.85;100.00
76866;BME280;66647;52.124;5.416;2023-11-19T03:23:01;100825.72;;;10.80;100.00
76866;BME280;66647;52.124;5.416;2023-11-19T03:25:28;100829.44;;;10.75;100.00
76866;BME280;66647;52.124;5.416;2023-11-19T03:28:00;100834.13;;;10.75;100.00
76866;BME280;66647;52.124;5.416;2023-11-19T03:30:29;100826.91;;;10.70;100.00
76866;BME280;66647;52.124;5.416;2023-11-19T03:32:59;100823.69;;;10.68;100.00
76866;BME280;66647;52.124;5.416;2023-11-19T03:35:29;100828.69;;;10.66;100.00
76866;BME280;66647;52.124;5.416;2023-11-19T03:37:56;100818.38;;;10.63;100.00
76866;BME280;66647;52.124;5.416;2023-11-19T03:40:23;100807.25;;;10.60;100.00
76866;BME280;66647;52.124;5.416;2023-11-19T03:42:52;100808.22;;;10.55;100.00
76866;BME280;66647;52.124;5.416;2023-11-19T03:45:19;100801.94;;;10.55;100.00
76866;BME280;66647;52.124;5.416;2023-11-19T03:47:45;100797.91;;;10.52;100.00
76866;BME280;66647;52.124;5.416;2023-11-19T03:50:12;100816.13;;;10.48;100.00
76866;BME280;66647;52.124;5.416;2023-11-19T03:52:39;100814.03;;;10.45;100.00
76866;BME280;66647;52.124;5.416;2023-11-19T03:55:08;100822.59;;;10.43;100.00
76866;BME280;66647;52.124;5.416;2023-11-19T03:57:35;100828.72;;;10.40;100.00
76866;BME280;66647;52.124;5.416;2023-11-19T04:00:02;100821.50;;;10.36;100.00
76866;BME280;66647;52.124;5.416;2023-11-19T04:02:40;100823.75;;;10.34;100.00
76866;BME280;66647;52.124;5.416;2023-11-19T04:05:07;100827.63;;;10.33;100.00
76866;BME280;66647;52.124;5.416;2023-11-19T04:07:33;100829.41;;;10.29;100.00
76866;BME280;66647;52.124;5.416;2023-11-19T04:10:00;100843.09;;;10.29;100.00
76866;BME280;66647;52.124;5.416;2023-11-19T04:12:27;100834.41;;;10.27;100.00
76866;BME280;66647;52.124;5.416;2023-11-19T04:14:53;100841.00;;;10.26;100.00
76866;BME280;66647;52.124;5.416;2023-11-19T04:17:23;100842.13;;;10.25;100.00
76866;BME280;66647;52.124;5.416;2023-11-19T04:19:54;100847.63;;;10.25;100.00
76866;BME280;66647;52.124;5.416;2023-11-19T04:22:20;100838.28;;;10.26;100.00
76866;BME280;66647;52.124;5.416;2023-11-19T04:24:47;100849.22;;;10.26;100.00
76866;BME280;66647;52.124;5.416;2023-11-19T04:27:13;100852.78;;;10.26;100.00
76866;BME280;66647;52.124;5.416;2023-11-19T04:29:40;100859.72;;;10.24;100.00
76866;BME280;66647;52.124;5.416;2023-11-19T04:32:07;100849.06;;;10.22;100.00
76866;BME280;66647;52.124;5.416;2023-11-19T04:34:34;100845.03;;;10.20;100.00
76866;BME280;66647;52.124;5.416;2023-11-19T04:37:04;100840.16;;;10.17;100.00
76866;BME280;66647;52.124;5.416;2023-11-19T04:39:33;100835.34;;;10.14;100.00
76866;BME280;66647;52.124;5.416;2023-11-19T04:42:00;100834.38;;;10.09;100.00
76866;BME280;66647;52.124;5.416;2023-11-19T04:44:27;100840.97;;;10.08;100.00
76866;BME280;66647;52.124;5.416;2023-11-19T04:46:53;100842.44;;;10.06;100.00
76866;BME280;66647;52.124;5.416;2023-11-19T04:49:20;100836.50;;;10.04;100.00
76866;BME280;66647;52.124;5.416;2023-11-19T04:51:47;100846.63;;;10.03;100.00
76866;BME280;66647;52.124;5.416;2023-11-19T04:54:14;100848.25;;;10.04;100.00
76866;BME280;66647;52.124;5.416;2023-11-19T04:56:45;100838.75;;;10.02;100.00
76866;BME280;66647;52.124;5.416;2023-11-19T04:59:12;100823.91;;;10.03;100.00
76866;BME280;66647;52.124;5.416;2023-11-19T05:01:39;100832.47;;;10.01;100.00
76866;BME280;66647;52.124;5.416;2023-11-19T05:04:07;100843.72;;;10.00;100.00
76866;BME280;66647;52.124;5.416;2023-11-19T05:06:34;100836.63;;;9.99;100.00
76866;BME280;66647;52.124;5.416;2023-11-19T05:09:01;100842.75;;;9.96;100.00
76866;BME280;66647;52.124;5.416;2023-11-19T05:11:33;100852.44;;;9.93;100.00
76866;BME280;66647;52.124;5.416;2023-11-19T05:14:02;100861.78;;;9.92;100.00
76866;BME280;66647;52.124;5.416;2023-11-19T05:16:33;100861.44;;;9.94;100.00
76866;BME280;66647;52.124;5.416;2023-11-19T05:19:00;100862.25;;;9.94;100.00
76866;BME280;66647;52.124;5.416;2023-11-19T05:21:27;100854.03;;;9.94;100.00
76866;BME280;66647;52.124;5.416;2023-11-19T05:23:53;100840.97;;;9.91;100.00
76866;BME280;66647;52.124;5.416;2023-11-19T05:26:21;100838.88;;;9.88;100.00
76866;BME280;66647;52.124;5.416;2023-11-19T05:28:49;100838.41;;;9.86;100.00
76866;BME280;66647;52.124;5.416;2023-11-19T05:31:17;100847.25;;;9.83;100.00
76866;BME280;66647;52.124;5.416;2023-11-19T05:33:44;100842.41;;;9.80;100.00
76866;BME280;66647;52.124;5.416;2023-11-19T05:36:12;100837.56;;;9.77;100.00
76866;BME280;66647;52.124;5.416;2023-11-19T05:38:41;100845.78;;;9.77;100.00
76866;BME280;66647;52.124;5.416;2023-11-19T05:41:08;100842.56;;;9.75;100.00
76866;BME280;66647;52.124;5.416;2023-11-19T05:43:34;100851.44;;;9.72;100.00
76866;BME280;66647;52.124;5.416;2023-11-19T05:46:02;100848.22;;;9.70;100.00
76866;BME280;66647;52.124;5.416;2023-11-19T05:48:28;100858.38;;;9.69;100.00
76866;BME280;66647;52.124;5.416;2023-11-19T05:50:55;100852.41;;;9.67;100.00
76866;BME280;66647;52.124;5.416;2023-11-19T05:53:22;100845.81;;;9.68;100.00
76866;BME280;66647;52.124;5.416;2023-11-19T05:55:48;100855.47;;;9.66;100.00
76866;BME280;66647;52.124;5.416;2023-11-19T05:58:23;100854.66;;;9.65;100.00
76866;BME280;66647;52.124;5.416;2023-11-19T06:00:50;100856.75;;;9.68;100.00
76866;BME280;66647;52.124;5.416;2023-11-19T06:03:17;100857.06;;;9.67;100.00
76866;BME280;66647;52.124;5.416;2023-11-19T06:05:45;100848.06;;;9.66;100.00
76866;BME280;66647;52.124;5.416;2023-11-19T06:08:12;100849.50;;;9.64;100.00
76866;BME280;66647;52.124;5.416;2023-11-19T06:10:43;100846.25;;;9.62;100.00
76866;BME280;66647;52.124;5.416;2023-11-19T06:13:13;100845.78;;;9.60;100.00
76866;BME280;66647;52.124;5.416;2023-11-19T06:15:44;100843.22;;;9.63;100.00
76866;BME280;66647;52.124;5.416;2023-11-19T06:18:11;100850.63;;;9.63;100.00
76866;BME280;66647;52.124;5.416;2023-11-19T06:20:41;100844.66;;;9.61;100.00
76866;BME280;66647;52.124;5.416;2023-11-19T06:23:09;100854.78;;;9.60;100.00
76866;BME280;66647;52.124;5.416;2023-11-19T06:25:36;100858.34;;;9.61;100.00
76866;BME280;66647;52.124;5.416;2023-11-19T06:28:03;100859.47;;;9.60;100.00
76866;BME280;66647;52.124;5.416;2023-11-19T06:30:30;100861.22;;;9.56;100.00
76866;BME280;66647;52.124;5.416;2023-11-19T06:32:58;100854.63;;;9.57;100.00
76866;BME280;66647;52.124;5.416;2023-11-19T06:35:26;100850.91;;;9.53;100.00
76866;BME280;66647;52.124;5.416;2023-11-19T06:37:53;100866.84;;;9.51;100.00
76866;BME280;66647;52.124;5.416;2023-11-19T06:40:19;100868.44;;;9.52;100.00
76866;BME280;66647;52.124;5.416;2023-11-19T06:42:47;100867.34;;;9.53;100.00
76866;BME280;66647;52.124;5.416;2023-11-19T06:45:13;100870.38;;;9.51;100.00
76866;BME280;66647;52.124;5.416;2023-11-19T06:47:40;100876.50;;;9.48;100.00
76866;BME280;66647;52.124;5.416;2023-11-19T06:50:07;100889.38;;;9.48;100.00
76866;BME280;66647;52.124;5.416;2023-11-19T06:52:34;100881.97;;;9.48;100.00
76866;BME280;66647;52.124;5.416;2023-11-19T06:55:00;100885.03;;;9.47;100.00
76866;BME280;66647;52.124;5.416;2023-11-19T06:57:30;100891.31;;;9.47;100.00
76866;BME280;66647;52.124;5.416;2023-11-19T06:59:58;100888.56;;;9.47;100.00
76866;BME280;66647;52.124;5.416;2023-11-19T07:02:25;100893.22;;;9.47;100.00
76866;BME280;66647;52.124;5.416;2023-11-19T07:04:53;100889.38;;;9.48;100.00
76866;BME280;66647;52.124;5.416;2023-11-19T07:07:21;100895.66;;;9.48;100.00
76866;BME280;66647;52.124;5.416;2023-11-19T07:09:47;100891.78;;;9.49;100.00
76866;BME280;66647;52.124;5.416;2023-11-19T07:12:14;100897.75;;;9.51;100.00
76866;BME280;66647;52.124;5.416;2023-11-19T07:14:44;100894.69;;;9.53;100.00
76866;BME280;66647;52.124;5.416;2023-11-19T07:17:11;100890.84;;;9.54;100.00
76866;BME280;66647;52.124;5.416;2023-11-19T07:19:38;100900.19;;;9.53;100.00
76866;BME280;66647;52.124;5.416;2023-11-19T07:22:05;100907.75;;;9.56;100.00
76866;BME280;66647;52.124;5.416;2023-11-19T07:24:32;100905.50;;;9.58;100.00
76866;BME280;66647;52.124;5.416;2023-11-19T07:26:59;100919.19;;;9.58;100.00
76866;BME280;66647;52.124;5.416;2023-11-19T07:29:27;100911.78;;;9.58;100.00
76866;BME280;66647;52.124;5.416;2023-11-19T07:31:55;100905.50;;;9.58;100.00
76866;BME280;66647;52.124;5.416;2023-11-19T07:34:22;100913.41;;;9.59;100.00
76866;BME280;66647;52.124;5.416;2023-11-19T07:36:49;100919.38;;;9.61;100.00
76866;BME280;66647;52.124;5.416;2023-11-19T07:39:16;100909.22;;;9.62;100.00
76866;BME280;66647;52.124;5.416;2023-11-19T07:41:43;100927.59;;;9.61;100.00
76866;BME280;66647;52.124;5.416;2023-11-19T07:44:10;100920.69;;;9.64;100.00
76866;BME280;66647;52.124;5.416;2023-11-19T07:46:40;100924.72;;;9.66;100.00
76866;BME280;66647;52.124;5.416;2023-11-19T07:49:09;100915.69;;;9.66;100.00
76866;BME280;66647;52.124;5.416;2023-11-19T07:51:36;100917.63;;;9.65;100.00
76866;BME280;66647;52.124;5.416;2023-11-19T07:54:03;100921.47;;;9.64;100.00
76866;BME280;66647;52.124;5.416;2023-11-19T07:56:32;100921.66;;;9.68;100.00
76866;BME280;66647;52.124;5.416;2023-11-19T07:58:58;100911.69;;;9.72;100.00
76866;BME280;66647;52.124;5.416;2023-11-19T08:01:25;100919.22;;;9.75;100.00
76866;BME280;66647;52.124;5.416;2023-11-19T08:03:51;100917.47;;;9.79;100.00
76866;BME280;66647;52.124;5.416;2023-11-19T08:06:21;100903.50;;;9.89;100.00
76866;BME280;66647;52.124;5.416;2023-11-19T08:08:48;100905.31;;;10.20;100.00
76866;BME280;66647;52.124;5.416;2023-11-19T08:11:14;100908.09;;;10.37;100.00
76866;BME280;66647;52.124;5.416;2023-11-19T08:13:41;100914.34;;;10.46;100.00
76866;BME280;66647;52.124;5.416;2023-11-19T08:16:08;100911.31;;;10.39;100.00
76866;BME280;66647;52.124;5.416;2023-11-19T08:18:36;100916.47;;;10.32;100.00
76866;BME280;66647;52.124;5.416;2023-11-19T08:21:03;100918.72;;;10.38;100.00
76866;BME280;66647;52.124;5.416;2023-11-19T08:23:31;100921.94;;;10.49;100.00
76866;BME280;66647;52.124;5.416;2023-11-19T08:25:58;100912.72;;;10.45;100.00
76866;BME280;66647;52.124;5.416;2023-11-19T08:28:25;100904.03;;;10.52;100.00
76866;BME280;66647;52.124;5.416;2023-11-19T08:30:52;100913.38;;;10.42;100.00
76866;BME280;66647;52.124;5.416;2023-11-19T08:33:18;100919.84;;;10.46;100.00
76866;BME280;66647;52.124;5.416;2023-11-19T08:35:45;100926.28;;;10.59;100.00
76866;BME280;66647;52.124;5.416;2023-11-19T08:38:13;100927.41;;;10.58;100.00
76866;BME280;66647;52.124;5.416;2023-11-19T08:40:40;100924.50;;;10.54;100.00
76866;BME280;66647;52.124;5.416;2023-11-19T08:43:06;100926.63;;;10.57;100.00
76866;BME280;66647;52.124;5.416;2023-11-19T08:45:33;100935.81;;;10.61;100.00
76866;BME280;66647;52.124;5.416;2023-11-19T08:48:00;100933.88;;;10.62;100.00
76866;BME280;66647;52.124;5.416;2023-11-19T08:50:26;100935.66;;;10.66;100.00
76866;BME280;66647;52.124;5.416;2023-11-19T08:52:53;100945.31;;;10.64;100.00
76866;BME280;66647;52.124;5.416;2023-11-19T08:55:20;100924.34;;;10.59;100.00
76866;BME280;66647;52.124;5.416;2023-11-19T08:57:46;100932.09;;;10.57;100.00
76866;BME280;66647;52.124;5.416;2023-11-19T09:00:13;100937.25;;;10.59;100.00
76866;BME280;66647;52.124;5.416;2023-11-19T09:02:40;100942.09;;;10.70;100.00
76866;BME280;66647;52.124;5.416;2023-11-19T09:05:07;100939.97;;;10.93;100.00
76866;BME280;66647;52.124;5.416;2023-11-19T09:07:34;100940.56;;;11.07;100.00
76866;BME280;66647;52.124;5.416;2023-11-19T09:10:02;100933.28;;;11.11;100.00
76866;BME280;66647;52.124;5.416;2023-11-19T09:12:31;100927.84;;;11.03;100.00
76866;BME280;66647;52.124;5.416;2023-11-19T09:14:57;100937.84;;;10.99;100.00
76866;BME280;66647;52.124;5.416;2023-11-19T09:17:24;100923.66;;;10.97;100.00
76866;BME280;66647;52.124;5.416;2023-11-19T09:19:51;100929.63;;;10.99;100.00
76866;BME280;66647;52.124;5.416;2023-11-19T09:22:17;100925.59;;;10.96;100.00
76866;BME280;66647;52.124;5.416;2023-11-19T09:24:45;100929.78;;;10.94;100.00
76866;BME280;66647;52.124;5.416;2023-11-19T09:27:12;100929.63;;;10.90;100.00
76866;BME280;66647;52.124;5.416;2023-11-19T09:29:38;100923.19;;;10.86;100.00
76866;BME280;66647;52.124;5.416;2023-11-19T09:32:05;100934.47;;;10.85;100.00
76866;BME280;66647;52.124;5.416;2023-11-19T09:34:32;100940.44;;;10.87;100.00
76866;BME280;66647;52.124;5.416;2023-11-19T09:36:59;100925.13;;;10.86;100.00
76866;BME280;66647;52.124;5.416;2023-11-19T09:39:26;100942.38;;;10.86;100.00
76866;BME280;66647;52.124;5.416;2023-11-19T09:41:52;100933.81;;;10.96;100.00
76866;BME280;66647;52.124;5.416;2023-11-19T09:44:19;100934.88;;;11.21;100.00
76866;BME280;66647;52.124;5.416;2023-11-19T09:46:46;100934.06;;;11.29;100.00
76866;BME280;66647;52.124;5.416;2023-11-19T09:49:19;100939.06;;;11.27;100.00
76866;BME280;66647;52.124;5.416;2023-11-19T09:52:01;100932.59;;;11.23;100.00
76866;BME280;66647;52.124;5.416;2023-11-19T09:54:29;100916.00;;;11.20;100.00
76866;BME280;66647;52.124;5.416;2023-11-19T09:56:59;100918.25;;;11.18;100.00
76866;BME280;66647;52.124;5.416;2023-11-19T09:59:30;100918.41;;;11.21;100.00
76866;BME280;66647;52.124;5.416;2023-11-19T10:01:57;100915.66;;;11.21;100.00
76866;BME280;66647;52.124;5.416;2023-11-19T10:04:25;100913.38;;;11.32;100.00
76866;BME280;66647;52.124;5.416;2023-11-19T10:06:56;100909.44;;;11.41;100.00
76866;BME280;66647;52.124;5.416;2023-11-19T10:09:30;100907.56;;;11.63;100.00
76866;BME280;66647;52.124;5.416;2023-11-19T10:11:57;100905.91;;;11.70;100.00
76866;BME280;66647;52.124;5.416;2023-11-19T10:14:24;100911.94;;;12.14;100.00
76866;BME280;66647;52.124;5.416;2023-11-19T10:16:51;100908.06;;;12.36;100.00
76866;BME280;66647;52.124;5.416;2023-11-19T10:19:20;100896.50;;;12.63;100.00
76866;BME280;66647;52.124;5.416;2023-11-19T10:21:47;100885.81;;;12.95;100.00
76866;BME280;66647;52.124;5.416;2023-11-19T10:24:14;100880.63;;;13.51;100.00
76866;BME280;66647;52.124;5.416;2023-11-19T10:26:56;100883.28;;;14.24;95.67
76866;BME280;66647;52.124;5.416;2023-11-19T10:29:24;100880.38;;;13.68;93.56
76866;BME280;66647;52.124;5.416;2023-11-19T10:31:57;100879.91;;;13.78;94.90
76866;BME280;66647;52.124;5.416;2023-11-19T10:34:43;100879.19;;;14.33;92.09
76866;BME280;66647;52.124;5.416;2023-11-19T10:37:27;100884.44;;;14.78;91.88
76866;BME280;66647;52.124;5.416;2023-11-19T10:39:55;100861.03;;;14.88;89.06
76866;BME280;66647;52.124;5.416;2023-11-19T10:42:22;100874.84;;;15.04;87.22
76866;BME280;66647;52.124;5.416;2023-11-19T10:44:49;100869.28;;;14.72;85.95
76866;BME280;66647;52.124;5.416;2023-11-19T10:47:18;100876.72;;;14.56;89.06
76866;BME280;66647;52.124;5.416;2023-11-19T10:49:46;100875.00;;;14.95;86.76
76866;BME280;66647;52.124;5.416;2023-11-19T10:52:17;100871.56;;;15.14;86.14
76866;BME280;66647;52.124;5.416;2023-11-19T10:54:49;100880.81;;;15.53;85.27
76866;BME280;66647;52.124;5.416;2023-11-19T10:57:20;100870.19;;;15.71;82.05
76866;BME280;66647;52.124;5.416;2023-11-19T10:59:49;100874.63;;;15.91;80.13
76866;BME280;66647;52.124;5.416;2023-11-19T11:02:19;100874.94;;;16.05;80.40
76866;BME280;66647;52.124;5.416;2023-11-19T11:04:49;100874.06;;;16.40;81.02
76866;BME280;66647;52.124;5.416;2023-11-19T11:07:21;100870.78;;;16.73;79.65
76866;BME280;66647;52.124;5.416;2023-11-19T11:10:02;100881.56;;;16.78;78.56
76866;BME280;66647;52.124;5.416;2023-11-19T11:12:37;100885.41;;;16.93;76.79
76866;BME280;66647;52.124;5.416;2023-11-19T11:15:07;100888.25;;;16.58;75.34
76866;BME280;66647;52.124;5.416;2023-11-19T11:17:36;100883.78;;;15.95;77.14
76866;BME280;66647;52.124;5.416;2023-11-19T11:20:05;100886.88;;;16.09;79.89
76866;BME280;66647;52.124;5.416;2023-11-19T11:25:43;100877.03;;;16.12;77.52
76866;BME280;66647;52.124;5.416;2023-11-19T11:29:17;100872.38;;;15.15;79.61
76866;BME280;66647;52.124;5.416;2023-11-19T11:34:16;100875.59;;;14.17;85.88
76866;BME280;66647;52.124;5.416;2023-11-19T11:37:11;100869.22;;;14.29;86.39
76866;BME280;66647;52.124;5.416;2023-11-19T11:39:43;100875.91;;;14.28;86.12
76866;BME280;66647;52.124;5.416;2023-11-19T11:45:06;100878.31;;;13.77;89.03
76866;BME280;66647;52.124;5.416;2023-11-19T11:50:17;100862.84;;;13.60;89.99
76866;BME280;66647;52.124;5.416;2023-11-19T11:58:19;100871.44;;;13.59;89.17
76866;BME280;66647;52.124;5.416;2023-11-19T12:00:51;100877.53;;;13.52;90.28
76866;BME280;66647;52.124;5.416;2023-11-19T12:03:43;100863.97;;;13.47;90.22
76866;BME280;66647;52.124;5.416;2023-11-19T12:09:26;100857.91;;;13.29;90.91
76866;BME280;66647;52.124;5.416;2023-11-19T12:12:07;100852.03;;;13.19;91.86
76866;BME280;66647;52.124;5.416;2023-11-19T12:20:05;100844.34;;;13.24;90.72
76866;BME280;66647;52.124;5.416;2023-11-19T12:22:39;100844.13;;;13.29;90.18
76866;BME280;66647;52.124;5.416;2023-11-19T12:25:07;100848.25;;;13.23;90.92
76866;BME280;66647;52.124;5.416;2023-11-19T12:27:36;100849.63;;;13.17;91.44
76866;BME280;66647;52.124;5.416;2023-11-19T12:30:03;100860.03;;;13.11;92.61
76866;BME280;66647;52.124;5.416;2023-11-19T12:32:43;100849.81;;;13.12;92.99
76866;BME280;66647;52.124;5.416;2023-11-19T12:35:11;100849.91;;;13.03;91.49
76866;BME280;66647;52.124;5.416;2023-11-19T12:37:41;100856.81;;;12.97;92.90
76866;BME280;66647;52.124;5.416;2023-11-19T12:40:21;100863.13;;;12.98;93.19
76866;BME280;66647;52.124;5.416;2023-11-19T12:42:49;100863.13;;;12.98;93.56
76866;BME280;66647;52.124;5.416;2023-11-19T12:45:16;100858.75;;;12.97;92.79
76866;BME280;66647;52.124;5.416;2023-11-19T12:47:44;100855.28;;;13.00;92.00
76866;BME280;66647;52.124;5.416;2023-11-19T12:50:11;100854.16;;;13.01;93.06
76866;BME280;66647;52.124;5.416;2023-11-19T12:52:38;100853.00;;;13.02;92.25
76866;BME280;66647;52.124;5.416;2023-11-19T12:55:23;100855.28;;;13.00;90.74
76866;BME280;66647;52.124;5.416;2023-11-19T12:57:56;100856.09;;;13.00;91.83
76866;BME280;66647;52.124;5.416;2023-11-19T13:00:23;100853.81;;;13.02;92.45
76866;BME280;66647;52.124;5.416;2023-11-19T13:02:52;100858.63;;;13.05;92.66
76866;BME280;66647;52.124;5.416;2023-11-19T13:07:47;100861.97;;;12.99;91.75
76866;BME280;66647;52.124;5.416;2023-11-19T13:10:13;100852.31;;;12.93;93.24
76866;BME280;66647;52.124;5.416;2023-11-19T13:12:42;100847.03;;;12.88;93.09
76866;BME280;66647;52.124;5.416;2023-11-19T13:15:24;100847.59;;;12.81;93.63
76866;BME280;66647;52.124;5.416;2023-11-19T13:17:51;100835.66;;;12.77;95.13
76866;BME280;66647;52.124;5.416;2023-11-19T13:20:19;100839.41;;;12.72;94.89
76866;BME280;66647;52.124;5.416;2023-11-19T13:23:14;100860.50;;;12.68;95.06